Viktor — D5KG3 — position and weather

sailwx.info

Track history (hours):
 
Tides and Currents Weather Stations Pressure Air Temp Water Temp Dewpoint Dewpoint Depression Visibility Wind Speed Wind Dir Waves Ship Positions

Viktor

Last reported at 2017-Dec-15 11:59 UTC. Time now 2017-Dec-15 12:20 UTC.
Position N 51°09' E 003°47'.

Length 140 m; draft 4.5 m.

Type: Cargo ship. MMSI: 636017300.

Date/timePositionNaut miles runAvg speedWind from/ knotsBaromVisibWave heightAir tempDewpointWater temp
2017-Dec-15 11:59N 51°09' E 003°47'0 0.0
2017-Dec-15 11:29N 51°09' E 003°47'0 0.0
2017-Dec-15 10:59N 51°09' E 003°47'0 0.0
2017-Dec-15 10:29N 51°09' E 003°47'0 0.0
2017-Dec-15 09:59N 51°09' E 003°47'0 0.0
2017-Dec-15 09:29N 51°09' E 003°47'0 0.0
2017-Dec-15 08:56N 51°09' E 003°47'0 0.0
2017-Dec-15 08:26N 51°09' E 003°47'0 0.0
2017-Dec-15 07:59N 51°09' E 003°47'0 0.0
2017-Dec-15 07:26N 51°09' E 003°47'0 0.0
2017-Dec-15 06:59N 51°09' E 003°47'0 0.0
2017-Dec-15 06:29N 51°09' E 003°47'0 0.0
2017-Dec-15 05:59N 51°09' E 003°47'0 0.0
2017-Dec-15 05:29N 51°09' E 003°47'0 0.0
2017-Dec-15 04:56N 51°09' E 003°47'0 0.0
2017-Dec-15 04:29N 51°09' E 003°47'0 0.0
2017-Dec-15 03:59N 51°09' E 003°47'0 0.0
2017-Dec-15 02:29N 51°09' E 003°47'0 0.0
2017-Dec-15 00:56N 51°09' E 003°47'0 0.0
2017-Dec-15 00:29N 51°09' E 003°47'0 0.0
2017-Dec-14 18:26N 51°09' E 003°47'0 0.0
2017-Dec-14 17:56N 51°09' E 003°47'0 0.0
2017-Dec-14 17:29N 51°09' E 003°47'0 0.0
2017-Dec-14 16:59N 51°09' E 003°47'0 0.0
2017-Dec-14 16:29N 51°09' E 003°47'0 0.0
2017-Dec-14 15:59N 51°09' E 003°47'0 0.0
2017-Dec-14 14:57N 51°09' E 003°47'0 0.2
2017-Dec-14 14:30N 51°09' E 003°47'3 5.6
2017-Dec-14 14:01N 51°12' E 003°48'4 7.2
2017-Dec-14 13:30N 51°15' E 003°50'3 6.6
2017-Dec-14 13:00N 51°19' E 003°50'1 2.3
2017-Dec-14 12:30N 51°20' E 003°49'1 1.6
2017-Dec-14 12:00N 51°20' E 003°49'4 7.5
2017-Dec-14 11:30N 51°22' E 003°44'4 8.3
2017-Dec-14 11:00N 51°25' E 003°38'5 8.9
2017-Dec-14 10:28N 51°25' E 003°31'4 7.8
2017-Dec-14 10:00N 51°24' E 003°25'4 8.0
2017-Dec-14 09:30N 51°24' E 003°19'4 8.7
2017-Dec-14 09:00N 51°24' E 003°12'5 9.7
2017-Dec-14 08:30N 51°25' E 003°04'4 8.8
2017-Dec-14 08:00N 51°23' E 002°58'6 9.4
2017-Dec-14 07:24N 51°21' E 002°49'4 8.7
2017-Dec-14 06:56N 51°21' E 002°42'2 4.7
2017-Dec-14 06:30N 51°21' E 002°39'2 4.0
2017-Dec-14 06:00N 51°20' E 002°36'0 0.5
2017-Dec-14 05:16N 51°20' E 002°36'0 0.1
2017-Dec-14 04:58N 51°20' E 002°36'0 0.1
2017-Dec-14 04:28N 51°20' E 002°35'0 0.1
2017-Dec-14 03:56N 51°20' E 002°36'0 0.1
2017-Dec-14 03:28N 51°20' E 002°36'0 0.0
2017-Dec-14 02:58N 51°20' E 002°36'0 0.0
2017-Dec-14 02:28N 51°20' E 002°36'0 0.0
2017-Dec-14 01:49N 51°20' E 002°36'0 0.0
2017-Dec-14 01:22N 51°20' E 002°36'0 0.0
2017-Dec-14 00:58N 51°20' E 002°36'0 0.0
2017-Dec-14 00:22N 51°20' E 002°36'0 0.1
2017-Dec-13 23:58N 51°20' E 002°36'0 0.0
2017-Dec-13 23:19N 51°20' E 002°36'0 0.1
2017-Dec-13 22:55N 51°20' E 002°36'0 0.0
2017-Dec-13 22:28N 51°20' E 002°36'0 0.0
2017-Dec-13 21:58N 51°20' E 002°36'0 0.0
2017-Dec-13 21:28N 51°20' E 002°36'0 0.0
2017-Dec-13 20:58N 51°20' E 002°36'0 0.0
2017-Dec-13 20:28N 51°20' E 002°36'0 0.0
2017-Dec-13 19:58N 51°20' E 002°36'0 0.0
2017-Dec-13 19:28N 51°20' E 002°36'0 0.0
2017-Dec-13 18:40N 51°20' E 002°36'0 0.0
2017-Dec-13 18:16N 51°20' E 002°36'0 0.0
2017-Dec-13 17:58N 51°20' E 002°36'0 0.1
2017-Dec-13 17:28N 51°20' E 002°36'0 0.1
2017-Dec-13 16:58N 51°20' E 002°35'0 0.1
2017-Dec-13 16:28N 51°20' E 002°35'0 0.0
2017-Dec-13 15:22N 51°20' E 002°35'0 0.1
2017-Dec-13 14:58N 51°20' E 002°35'0 0.0
2017-Dec-13 14:19N 51°20' E 002°35'0 0.1
2017-Dec-13 13:58N 51°20' E 002°35'0 0.1
2017-Dec-13 13:25N 51°20' E 002°36'0 0.0
2017-Dec-13 12:55N 51°20' E 002°36'0 0.0
2017-Dec-13 12:28N 51°20' E 002°36'0 0.0
2017-Dec-13 11:52N 51°20' E 002°36'0 0.0
2017-Dec-13 11:13N 51°20' E 002°36'0 0.0
2017-Dec-13 10:43N 51°20' E 002°36'0 0.1
2017-Dec-13 10:28N 51°20' E 002°36'0 0.0
2017-Dec-13 09:55N 51°20' E 002°36'0 0.0
2017-Dec-13 09:25N 51°20' E 002°36'0 0.0
2017-Dec-13 08:58N 51°20' E 002°36'0 0.1
2017-Dec-13 08:28N 51°20' E 002°35'0 0.0
2017-Dec-13 07:55N 51°20' E 002°35'0 0.0
2017-Dec-13 07:25N 51°20' E 002°35'0 0.0
2017-Dec-13 06:58N 51°20' E 002°35'0 0.0
2017-Dec-13 06:28N 51°20' E 002°35'0 0.0
2017-Dec-13 05:58N 51°20' E 002°35'0 0.0
2017-Dec-13 05:16N 51°20' E 002°35'0 0.1
2017-Dec-13 04:58N 51°20' E 002°35'0 0.0
2017-Dec-13 04:28N 51°20' E 002°35'0 0.0
2017-Dec-13 03:58N 51°20' E 002°35'0 0.0
2017-Dec-13 03:28N 51°20' E 002°35'0 0.0
2017-Dec-13 02:58N 51°20' E 002°35'0 0.0
2017-Dec-13 02:22N 51°20' E 002°35'0 0.0
2017-Dec-13 01:58N 51°20' E 002°35'0 0.0
2017-Dec-13 01:19N 51°20' E 002°35'0 0.0
2017-Dec-13 00:46N 51°20' E 002°35'0 0.1
2017-Dec-13 00:28N 51°20' E 002°35'0 0.0
2017-Dec-12 23:55N 51°20' E 002°35'0 0.1
2017-Dec-12 23:28N 51°20' E 002°35'0 0.0
2017-Dec-12 22:16N 51°20' E 002°35'0 0.0
2017-Dec-12 21:58N 51°20' E 002°35'0 0.0
2017-Dec-12 21:28N 51°20' E 002°35'0 0.0
2017-Dec-12 20:58N 51°20' E 002°35'0 0.0
2017-Dec-12 20:28N 51°20' E 002°36'0 0.1
2017-Dec-12 19:58N 51°20' E 002°36'1 2.0
2017-Dec-12 19:27N 51°21' E 002°35'3 7.1
2017-Dec-12 19:00N 51°21' E 002°29'5 9.7
2017-Dec-12 18:29N 51°19' E 002°22'5 9.6
2017-Dec-12 18:00N 51°17' E 002°16'5 9.4
2017-Dec-12 17:29N 51°15' E 002°09'4 9.0
2017-Dec-12 17:00N 51°12' E 002°03'4 8.7
2017-Dec-12 16:30N 51°10' E 001°57'4 8.4
2017-Dec-12 16:00N 51°08' E 001°51'4 8.1
2017-Dec-12 15:30N 51°06' E 001°46'3 6.2
2017-Dec-12 15:00N 51°03' E 001°47'4 8.9
2017-Dec-12 14:30N 51°02' E 001°54'4 8.6
2017-Dec-12 14:00N 51°03' E 002°01'5 9.6
2017-Dec-12 13:30N 51°03' E 002°08'5 9.7
2017-Dec-12 12:59N 51°04' E 002°16'3 3.3
2017-Dec-12 11:59N 51°03' E 002°21'1 2.4
2017-Dec-12 11:30N 51°03' E 002°20'0 0.3
2017-Dec-12 10:48N 51°03' E 002°19'0 0.0
2017-Dec-12 10:15N 51°03' E 002°19'0 0.0
2017-Dec-12 10:00N 51°03' E 002°19'0 0.0
2017-Dec-12 09:24N 51°03' E 002°19'0 0.0
2017-Dec-12 09:00N 51°03' E 002°19'0 0.0
2017-Dec-12 08:30N 51°03' E 002°19'0 0.0
2017-Dec-12 08:00N 51°03' E 002°19'0 0.0
2017-Dec-12 07:21N 51°03' E 002°19'0 0.0
2017-Dec-12 06:09N 51°03' E 002°19'0 0.0
2017-Dec-12 06:00N 51°03' E 002°19'0 0.0
2017-Dec-12 05:15N 51°03' E 002°19'0 0.0
2017-Dec-12 04:42N 51°03' E 002°19'0 0.0
2017-Dec-12 04:15N 51°03' E 002°19'0 0.0
2017-Dec-12 04:00N 51°03' E 002°19'0 0.0
2017-Dec-12 03:30N 51°03' E 002°19'0 0.0
2017-Dec-12 01:03N 51°03' E 002°19'0 0.0
2017-Dec-12 01:00N 51°03' E 002°19'0 0.0
2017-Dec-12 00:30N 51°03' E 002°19'0 0.0
2017-Dec-11 23:45N 51°03' E 002°19'0 0.0
2017-Dec-11 23:15N 51°03' E 002°19'0 0.0
2017-Dec-11 23:00N 51°03' E 002°19'0 0.0
2017-Dec-11 22:30N 51°03' E 002°19'0 0.0
2017-Dec-11 21:57N 51°03' E 002°19'0 0.0
2017-Dec-11 21:30N 51°03' E 002°19'0 0.0
2017-Dec-11 21:00N 51°03' E 002°19'0 0.0
2017-Dec-11 20:30N 51°03' E 002°19'0 0.0
2017-Dec-11 20:00N 51°03' E 002°19'0 0.0
2017-Dec-11 19:30N 51°03' E 002°19'0 0.0
2017-Dec-11 19:00N 51°03' E 002°19'0 0.0
2017-Dec-11 18:27N 51°03' E 002°19'0 0.0
2017-Dec-11 17:57N 51°03' E 002°19'0 0.0
2017-Dec-11 17:30N 51°03' E 002°19'0 0.0
2017-Dec-11 17:00N 51°03' E 002°19'0 0.0
2017-Dec-11 16:27N 51°03' E 002°19'0 0.0
2017-Dec-11 16:00N 51°03' E 002°19'0 0.0
2017-Dec-11 15:29N 51°03' E 002°19'0 0.0
2017-Dec-11 15:00N 51°03' E 002°19'0 0.0
2017-Dec-11 14:30N 51°03' E 002°19'0 0.0
2017-Dec-11 14:00N 51°03' E 002°19'0 0.0
2017-Dec-11 13:29N 51°03' E 002°19'0 0.0
2017-Dec-11 12:55N 51°03' E 002°19'0 0.0
2017-Dec-11 12:28N 51°03' E 002°19'0 0.2
2017-Dec-11 12:00N 51°03' E 002°19'1 1.4
2017-Dec-11 11:29N 51°03' E 002°20'1 1.3
2017-Dec-11 10:59N 51°04' E 002°20'2 4.6
2017-Dec-11 10:29N 51°04' E 002°16'2 4.9
2017-Dec-11 10:00N 51°03' E 002°13'3 4.9
2017-Dec-11 09:28N 51°03' E 002°09'3 5.4
2017-Dec-11 08:53N 51°03' E 002°04'2 5.7
2017-Dec-11 08:29N 51°02' E 002°00'3 6.2
2017-Dec-11 08:00N 51°02' E 001°55'3 5.4
2017-Dec-11 07:30N 51°02' E 001°51'3 5.3
2017-Dec-11 07:00N 51°02' E 001°47'3 6.0
2017-Dec-11 06:30N 51°02' E 001°42'2 4.6
2017-Dec-11 06:00N 51°02' E 001°38'2 4.6
2017-Dec-11 05:30N 51°00' E 001°36'2 4.9
2017-Dec-11 05:00N 50°58' E 001°34'4 7.4
2017-Dec-11 04:31N 50°55' E 001°30'  
2017-Dec-07 22:43N 44°03' W 007°42'2 8.2
2017-Dec-07 22:30N 44°01' W 007°42'4 8.0
2017-Dec-07 22:00N 43°57' W 007°45'6 8.4
2017-Dec-07 21:16N 43°52' W 007°47'3 8.2
2017-Dec-07 20:53N 43°49' W 007°49'3 7.4
2017-Dec-07 20:28N 43°46' W 007°50'2 4.3
2017-Dec-07 20:00N 43°44' W 007°52'0 0.0
2017-Dec-07 19:30N 43°44' W 007°52'0 0.0
2017-Dec-07 19:00N 43°44' W 007°52'0 0.0
2017-Dec-07 18:30N 43°44' W 007°52'0 0.0
2017-Dec-07 17:57N 43°44' W 007°52'0 0.0
2017-Dec-07 17:30N 43°44' W 007°52'0 0.0
2017-Dec-07 16:57N 43°44' W 007°52'0 0.0
2017-Dec-07 16:30N 43°44' W 007°52'0 0.0
2017-Dec-07 16:00N 43°44' W 007°52'0 0.0
2017-Dec-07 15:30N 43°44' W 007°52'0 0.0
2017-Dec-07 15:00N 43°44' W 007°52'0 0.0
2017-Dec-07 10:21N 43°44' W 007°52'0 0.0
2017-Dec-07 09:54N 43°44' W 007°52'0 0.0
2017-Dec-07 09:30N 43°44' W 007°52'0 0.0
2017-Dec-07 08:57N 43°44' W 007°52'0 0.0
2017-Dec-07 08:30N 43°44' W 007°52'0 0.0
2017-Dec-07 08:00N 43°44' W 007°52'0 0.0
2017-Dec-07 07:30N 43°44' W 007°52'0 0.0
2017-Dec-07 07:00N 43°44' W 007°52'0 0.0
2017-Dec-07 06:29N 43°44' W 007°52'0 0.0
2017-Dec-07 06:00N 43°44' W 007°52'0 0.0
2017-Dec-07 05:30N 43°44' W 007°52'0 0.0
2017-Dec-07 05:00N 43°44' W 007°52'0 0.0
2017-Dec-07 04:27N 43°44' W 007°52'0 0.0
2017-Dec-07 04:00N 43°44' W 007°52'0 0.0
2017-Dec-07 03:30N 43°44' W 007°52'0 0.0
2017-Dec-07 02:54N 43°44' W 007°52'0 0.0
2017-Dec-07 02:24N 43°44' W 007°52'0 0.0
2017-Dec-07 02:00N 43°44' W 007°52'0 0.0
2017-Dec-07 01:18N 43°44' W 007°52'0 0.0
2017-Dec-07 00:54N 43°44' W 007°52'0 0.0
2017-Dec-07 00:30N 43°44' W 007°52'0 0.0
2017-Dec-07 00:00N 43°44' W 007°52'0 0.0
2017-Dec-06 23:30N 43°44' W 007°52'0 0.0
2017-Dec-06 23:00N 43°44' W 007°52'0 0.0
2017-Dec-06 22:29N 43°44' W 007°52'0 0.0
2017-Dec-06 22:00N 43°44' W 007°52'0 0.0
2017-Dec-06 21:11N 43°44' W 007°52'0 0.0
2017-Dec-06 20:59N 43°44' W 007°52'  
Track history (hours):
 
Tides and Currents Weather Stations Pressure Air Temp Water Temp Dewpoint Dewpoint Depression Visibility Wind Speed Wind Dir Waves Ship Positions

Viktor

Last reported at 2017-Dec-15 11:59 UTC. Time now 2017-Dec-15 12:20 UTC.
Position N 51°09' E 003°47'.

Length 140 m; draft 4.5 m.

Type: Cargo ship. MMSI: 636017300.

Date/timePositionNaut miles runAvg speedWind from/ knotsBaromVisibWave heightAir tempDewpointWater temp
2017-Dec-15 11:59N 51°09' E 003°47'0 0.0
2017-Dec-15 11:29N 51°09' E 003°47'0 0.0
2017-Dec-15 10:59N 51°09' E 003°47'0 0.0
2017-Dec-15 10:29N 51°09' E 003°47'0 0.0
2017-Dec-15 09:59N 51°09' E 003°47'0 0.0
2017-Dec-15 09:29N 51°09' E 003°47'0 0.0
2017-Dec-15 08:56N 51°09' E 003°47'0 0.0
2017-Dec-15 08:26N 51°09' E 003°47'0 0.0
2017-Dec-15 07:59N 51°09' E 003°47'0 0.0
2017-Dec-15 07:26N 51°09' E 003°47'0 0.0
2017-Dec-15 06:59N 51°09' E 003°47'0 0.0
2017-Dec-15 06:29N 51°09' E 003°47'0 0.0
2017-Dec-15 05:59N 51°09' E 003°47'0 0.0
2017-Dec-15 05:29N 51°09' E 003°47'0 0.0
2017-Dec-15 04:56N 51°09' E 003°47'0 0.0
2017-Dec-15 04:29N 51°09' E 003°47'0 0.0
2017-Dec-15 03:59N 51°09' E 003°47'0 0.0
2017-Dec-15 02:29N 51°09' E 003°47'0 0.0
2017-Dec-15 00:56N 51°09' E 003°47'0 0.0
2017-Dec-15 00:29N 51°09' E 003°47'0 0.0
2017-Dec-14 18:26N 51°09' E 003°47'0 0.0
2017-Dec-14 17:56N 51°09' E 003°47'0 0.0
2017-Dec-14 17:29N 51°09' E 003°47'0 0.0
2017-Dec-14 16:59N 51°09' E 003°47'0 0.0
2017-Dec-14 16:29N 51°09' E 003°47'0 0.0
2017-Dec-14 15:59N 51°09' E 003°47'0 0.0
2017-Dec-14 14:57N 51°09' E 003°47'0 0.2
2017-Dec-14 14:30N 51°09' E 003°47'3 5.6
2017-Dec-14 14:01N 51°12' E 003°48'4 7.2
2017-Dec-14 13:30N 51°15' E 003°50'3 6.6
2017-Dec-14 13:00N 51°19' E 003°50'1 2.3
2017-Dec-14 12:30N 51°20' E 003°49'1 1.6
2017-Dec-14 12:00N 51°20' E 003°49'4 7.5
2017-Dec-14 11:30N 51°22' E 003°44'4 8.3
2017-Dec-14 11:00N 51°25' E 003°38'5 8.9
2017-Dec-14 10:28N 51°25' E 003°31'4 7.8
2017-Dec-14 10:00N 51°24' E 003°25'4 8.0
2017-Dec-14 09:30N 51°24' E 003°19'4 8.7
2017-Dec-14 09:00N 51°24' E 003°12'5 9.7
2017-Dec-14 08:30N 51°25' E 003°04'4 8.8
2017-Dec-14 08:00N 51°23' E 002°58'6 9.4
2017-Dec-14 07:24N 51°21' E 002°49'4 8.7
2017-Dec-14 06:56N 51°21' E 002°42'2 4.7
2017-Dec-14 06:30N 51°21' E 002°39'2 4.0
2017-Dec-14 06:00N 51°20' E 002°36'0 0.5
2017-Dec-14 05:16N 51°20' E 002°36'0 0.1
2017-Dec-14 04:58N 51°20' E 002°36'0 0.1
2017-Dec-14 04:28N 51°20' E 002°35'0 0.1
2017-Dec-14 03:56N 51°20' E 002°36'0 0.1
2017-Dec-14 03:28N 51°20' E 002°36'0 0.0
2017-Dec-14 02:58N 51°20' E 002°36'0 0.0
2017-Dec-14 02:28N 51°20' E 002°36'0 0.0
2017-Dec-14 01:49N 51°20' E 002°36'0 0.0
2017-Dec-14 01:22N 51°20' E 002°36'0 0.0
2017-Dec-14 00:58N 51°20' E 002°36'0 0.0
2017-Dec-14 00:22N 51°20' E 002°36'0 0.1
2017-Dec-13 23:58N 51°20' E 002°36'0 0.0
2017-Dec-13 23:19N 51°20' E 002°36'0 0.1
2017-Dec-13 22:55N 51°20' E 002°36'0 0.0
2017-Dec-13 22:28N 51°20' E 002°36'0 0.0
2017-Dec-13 21:58N 51°20' E 002°36'0 0.0
2017-Dec-13 21:28N 51°20' E 002°36'0 0.0
2017-Dec-13 20:58N 51°20' E 002°36'0 0.0
2017-Dec-13 20:28N 51°20' E 002°36'0 0.0
2017-Dec-13 19:58N 51°20' E 002°36'0 0.0
2017-Dec-13 19:28N 51°20' E 002°36'0 0.0
2017-Dec-13 18:40N 51°20' E 002°36'0 0.0
2017-Dec-13 18:16N 51°20' E 002°36'0 0.0
2017-Dec-13 17:58N 51°20' E 002°36'0 0.1
2017-Dec-13 17:28N 51°20' E 002°36'0 0.1
2017-Dec-13 16:58N 51°20' E 002°35'0 0.1
2017-Dec-13 16:28N 51°20' E 002°35'0 0.0
2017-Dec-13 15:22N 51°20' E 002°35'0 0.1
2017-Dec-13 14:58N 51°20' E 002°35'0 0.0
2017-Dec-13 14:19N 51°20' E 002°35'0 0.1
2017-Dec-13 13:58N 51°20' E 002°35'0 0.1
2017-Dec-13 13:25N 51°20' E 002°36'0 0.0
2017-Dec-13 12:55N 51°20' E 002°36'0 0.0
2017-Dec-13 12:28N 51°20' E 002°36'0 0.0
2017-Dec-13 11:52N 51°20' E 002°36'0 0.0
2017-Dec-13 11:13N 51°20' E 002°36'0 0.0
2017-Dec-13 10:43N 51°20' E 002°36'0 0.1
2017-Dec-13 10:28N 51°20' E 002°36'0 0.0
2017-Dec-13 09:55N 51°20' E 002°36'0 0.0
2017-Dec-13 09:25N 51°20' E 002°36'0 0.0
2017-Dec-13 08:58N 51°20' E 002°36'0 0.1
2017-Dec-13 08:28N 51°20' E 002°35'0 0.0
2017-Dec-13 07:55N 51°20' E 002°35'0 0.0
2017-Dec-13 07:25N 51°20' E 002°35'0 0.0
2017-Dec-13 06:58N 51°20' E 002°35'0 0.0
2017-Dec-13 06:28N 51°20' E 002°35'0 0.0
2017-Dec-13 05:58N 51°20' E 002°35'0 0.0
2017-Dec-13 05:16N 51°20' E 002°35'0 0.1
2017-Dec-13 04:58N 51°20' E 002°35'0 0.0
2017-Dec-13 04:28N 51°20' E 002°35'0 0.0
2017-Dec-13 03:58N 51°20' E 002°35'0 0.0
2017-Dec-13 03:28N 51°20' E 002°35'0 0.0
2017-Dec-13 02:58N 51°20' E 002°35'0 0.0
2017-Dec-13 02:22N 51°20' E 002°35'0 0.0
2017-Dec-13 01:58N 51°20' E 002°35'0 0.0
2017-Dec-13 01:19N 51°20' E 002°35'0 0.0
2017-Dec-13 00:46N 51°20' E 002°35'0 0.1
2017-Dec-13 00:28N 51°20' E 002°35'0 0.0
2017-Dec-12 23:55N 51°20' E 002°35'0 0.1
2017-Dec-12 23:28N 51°20' E 002°35'0 0.0
2017-Dec-12 22:16N 51°20' E 002°35'0 0.0
2017-Dec-12 21:58N 51°20' E 002°35'0 0.0
2017-Dec-12 21:28N 51°20' E 002°35'0 0.0
2017-Dec-12 20:58N 51°20' E 002°35'0 0.0
2017-Dec-12 20:28N 51°20' E 002°36'0 0.1
2017-Dec-12 19:58N 51°20' E 002°36'1 2.0
2017-Dec-12 19:27N 51°21' E 002°35'3 7.1
2017-Dec-12 19:00N 51°21' E 002°29'5 9.7
2017-Dec-12 18:29N 51°19' E 002°22'5 9.6
2017-Dec-12 18:00N 51°17' E 002°16'5 9.4
2017-Dec-12 17:29N 51°15' E 002°09'4 9.0
2017-Dec-12 17:00N 51°12' E 002°03'4 8.7
2017-Dec-12 16:30N 51°10' E 001°57'4 8.4
2017-Dec-12 16:00N 51°08' E 001°51'4 8.1
2017-Dec-12 15:30N 51°06' E 001°46'3 6.2
2017-Dec-12 15:00N 51°03' E 001°47'4 8.9
2017-Dec-12 14:30N 51°02' E 001°54'4 8.6
2017-Dec-12 14:00N 51°03' E 002°01'5 9.6
2017-Dec-12 13:30N 51°03' E 002°08'5 9.7
2017-Dec-12 12:59N 51°04' E 002°16'3 3.3
2017-Dec-12 11:59N 51°03' E 002°21'1 2.4
2017-Dec-12 11:30N 51°03' E 002°20'0 0.3
2017-Dec-12 10:48N 51°03' E 002°19'0 0.0
2017-Dec-12 10:15N 51°03' E 002°19'0 0.0
2017-Dec-12 10:00N 51°03' E 002°19'0 0.0
2017-Dec-12 09:24N 51°03' E 002°19'0 0.0
2017-Dec-12 09:00N 51°03' E 002°19'0 0.0
2017-Dec-12 08:30N 51°03' E 002°19'0 0.0
2017-Dec-12 08:00N 51°03' E 002°19'0 0.0
2017-Dec-12 07:21N 51°03' E 002°19'0 0.0
2017-Dec-12 06:09N 51°03' E 002°19'0 0.0
2017-Dec-12 06:00N 51°03' E 002°19'0 0.0
2017-Dec-12 05:15N 51°03' E 002°19'0 0.0
2017-Dec-12 04:42N 51°03' E 002°19'0 0.0
2017-Dec-12 04:15N 51°03' E 002°19'0 0.0
2017-Dec-12 04:00N 51°03' E 002°19'0 0.0
2017-Dec-12 03:30N 51°03' E 002°19'0 0.0
2017-Dec-12 01:03N 51°03' E 002°19'0 0.0
2017-Dec-12 01:00N 51°03' E 002°19'0 0.0
2017-Dec-12 00:30N 51°03' E 002°19'0 0.0
2017-Dec-11 23:45N 51°03' E 002°19'0 0.0
2017-Dec-11 23:15N 51°03' E 002°19'0 0.0
2017-Dec-11 23:00N 51°03' E 002°19'0 0.0
2017-Dec-11 22:30N 51°03' E 002°19'0 0.0
2017-Dec-11 21:57N 51°03' E 002°19'0 0.0
2017-Dec-11 21:30N 51°03' E 002°19'0 0.0
2017-Dec-11 21:00N 51°03' E 002°19'0 0.0
2017-Dec-11 20:30N 51°03' E 002°19'0 0.0
2017-Dec-11 20:00N 51°03' E 002°19'0 0.0
2017-Dec-11 19:30N 51°03' E 002°19'0 0.0
2017-Dec-11 19:00N 51°03' E 002°19'0 0.0
2017-Dec-11 18:27N 51°03' E 002°19'0 0.0
2017-Dec-11 17:57N 51°03' E 002°19'0 0.0
2017-Dec-11 17:30N 51°03' E 002°19'0 0.0
2017-Dec-11 17:00N 51°03' E 002°19'0 0.0
2017-Dec-11 16:27N 51°03' E 002°19'0 0.0
2017-Dec-11 16:00N 51°03' E 002°19'0 0.0
2017-Dec-11 15:29N 51°03' E 002°19'0 0.0
2017-Dec-11 15:00N 51°03' E 002°19'0 0.0
2017-Dec-11 14:30N 51°03' E 002°19'0 0.0
2017-Dec-11 14:00N 51°03' E 002°19'0 0.0
2017-Dec-11 13:29N 51°03' E 002°19'0 0.0
2017-Dec-11 12:55N 51°03' E 002°19'0 0.0
2017-Dec-11 12:28N 51°03' E 002°19'0 0.2
2017-Dec-11 12:00N 51°03' E 002°19'1 1.4
2017-Dec-11 11:29N 51°03' E 002°20'1 1.3
2017-Dec-11 10:59N 51°04' E 002°20'2 4.6
2017-Dec-11 10:29N 51°04' E 002°16'2 4.9
2017-Dec-11 10:00N 51°03' E 002°13'3 4.9
2017-Dec-11 09:28N 51°03' E 002°09'3 5.4
2017-Dec-11 08:53N 51°03' E 002°04'2 5.7
2017-Dec-11 08:29N 51°02' E 002°00'3 6.2
2017-Dec-11 08:00N 51°02' E 001°55'3 5.4
2017-Dec-11 07:30N 51°02' E 001°51'3 5.3
2017-Dec-11 07:00N 51°02' E 001°47'3 6.0
2017-Dec-11 06:30N 51°02' E 001°42'2 4.6
2017-Dec-11 06:00N 51°02' E 001°38'2 4.6
2017-Dec-11 05:30N 51°00' E 001°36'2 4.9
2017-Dec-11 05:00N 50°58' E 001°34'4 7.4
2017-Dec-11 04:31N 50°55' E 001°30'  
2017-Dec-07 22:43N 44°03' W 007°42'2 8.2
2017-Dec-07 22:30N 44°01' W 007°42'4 8.0
2017-Dec-07 22:00N 43°57' W 007°45'6 8.4
2017-Dec-07 21:16N 43°52' W 007°47'3 8.2
2017-Dec-07 20:53N 43°49' W 007°49'3 7.4
2017-Dec-07 20:28N 43°46' W 007°50'2 4.3
2017-Dec-07 20:00N 43°44' W 007°52'0 0.0
2017-Dec-07 19:30N 43°44' W 007°52'0 0.0
2017-Dec-07 19:00N 43°44' W 007°52'0 0.0
2017-Dec-07 18:30N 43°44' W 007°52'0 0.0
2017-Dec-07 17:57N 43°44' W 007°52'0 0.0
2017-Dec-07 17:30N 43°44' W 007°52'0 0.0
2017-Dec-07 16:57N 43°44' W 007°52'0 0.0
2017-Dec-07 16:30N 43°44' W 007°52'0 0.0
2017-Dec-07 16:00N 43°44' W 007°52'0 0.0
2017-Dec-07 15:30N 43°44' W 007°52'0 0.0
2017-Dec-07 15:00N 43°44' W 007°52'0 0.0
2017-Dec-07 10:21N 43°44' W 007°52'0 0.0
2017-Dec-07 09:54N 43°44' W 007°52'0 0.0
2017-Dec-07 09:30N 43°44' W 007°52'0 0.0
2017-Dec-07 08:57N 43°44' W 007°52'0 0.0
2017-Dec-07 08:30N 43°44' W 007°52'0 0.0
2017-Dec-07 08:00N 43°44' W 007°52'0 0.0
2017-Dec-07 07:30N 43°44' W 007°52'0 0.0
2017-Dec-07 07:00N 43°44' W 007°52'0 0.0
2017-Dec-07 06:29N 43°44' W 007°52'0 0.0
2017-Dec-07 06:00N 43°44' W 007°52'0 0.0
2017-Dec-07 05:30N 43°44' W 007°52'0 0.0
2017-Dec-07 05:00N 43°44' W 007°52'0 0.0
2017-Dec-07 04:27N 43°44' W 007°52'0 0.0
2017-Dec-07 04:00N 43°44' W 007°52'0 0.0
2017-Dec-07 03:30N 43°44' W 007°52'0 0.0
2017-Dec-07 02:54N 43°44' W 007°52'0 0.0
2017-Dec-07 02:24N 43°44' W 007°52'0 0.0
2017-Dec-07 02:00N 43°44' W 007°52'0 0.0
2017-Dec-07 01:18N 43°44' W 007°52'0 0.0
2017-Dec-07 00:54N 43°44' W 007°52'0 0.0
2017-Dec-07 00:30N 43°44' W 007°52'0 0.0
2017-Dec-07 00:00N 43°44' W 007°52'0 0.0
2017-Dec-06 23:30N 43°44' W 007°52'0 0.0
2017-Dec-06 23:00N 43°44' W 007°52'0 0.0
2017-Dec-06 22:29N 43°44' W 007°52'0 0.0
2017-Dec-06 22:00N 43°44' W 007°52'0 0.0
2017-Dec-06 21:11N 43°44' W 007°52'0 0.0
2017-Dec-06 20:59N 43°44' W 007°52'  

Dump ship's entire track history